Orange Wave — ELPX7 — position and weather

sailwx.info

Track history (hours):
 
Tides and Currents Weather Stations Pressure Air Temp Water Temp Dewpoint Dewpoint Depression Visibility Wind Speed Wind Dir Waves Ship Positions

Orange Wave

Last reported at 2018-Jan-12 06:00 UTC. Time now 2018-Jan-20 13:24 UTC.
Position N 11°30' E 112°00'.
Warning: this ship's position is 8 days out of date.

Type: Cargo ship. MMSI: 636009894.

Wind from 040 at 25 knots

Barometer 1016.0 mb
Air temperature 27.0 ° C
Visibility: greater than 5.4 NM
Dewpoint 23.6 ° C

Date/timePositionNaut miles runAvg speedWind from/ knotsBaromVisibWave heightAir tempDewpointWater temp
2018-Jan-12 06:00N 11°30' E 112°00'   040 / 251016.0 5.4 27.023.6
2018-Jan-09 17:22N 22°01' E 121°11'514.3
2018-Jan-09 17:00N 22°05' E 121°14'714.5
2018-Jan-09 16:30N 22°11' E 121°19'1415.3
2018-Jan-09 15:34N 22°23' E 121°28'216.3
2018-Jan-09 15:28N 22°24' E 121°29'715.6
2018-Jan-09 15:00N 22°30' E 121°33'815.4
2018-Jan-09 14:28N 22°37' E 121°37'814.7
2018-Jan-09 13:57N 22°44' E 121°41'814.8
2018-Jan-09 13:23N 22°52' E 121°44'6814.7
2018-Jan-09 08:46N 23°54' E 122°15'414.7
2018-Jan-09 08:30N 23°57' E 122°17'714.8
2018-Jan-09 08:01N 24°04' E 122°20'714.5
2018-Jan-09 07:31N 24°10' E 122°24'714.4
2018-Jan-09 07:00N 24°17' E 122°27'714.3
2018-Jan-09 06:31N 24°23' E 122°31'714.3
2018-Jan-09 06:01N 24°29' E 122°35'714.3
2018-Jan-09 05:31N 24°35' E 122°39'714.2
2018-Jan-09 05:01N 24°42' E 122°43'154.8
2018-Jan-09 05:00N 24°42' E 122°42'714.6 020 / 211024.0 5.4 15.811.3
2018-Jan-09 04:31N 24°48' E 122°46'713.9
2018-Jan-09 04:00N 24°54' E 122°50'713.6
2018-Jan-09 03:31N 24°60' E 122°53'713.7
2018-Jan-09 03:01N 25°06' E 122°57'713.6
2018-Jan-09 02:31N 25°12' E 123°01'713.3
2018-Jan-09 02:01N 25°18' E 123°04'  
Track history (hours):
 
Tides and Currents Weather Stations Pressure Air Temp Water Temp Dewpoint Dewpoint Depression Visibility Wind Speed Wind Dir Waves Ship Positions

Orange Wave

Last reported at 2018-Jan-12 06:00 UTC. Time now 2018-Jan-20 13:24 UTC.
Position N 11°30' E 112°00'.
Warning: this ship's position is 8 days out of date.

Type: Cargo ship. MMSI: 636009894.

Wind from 040 at 25 knots

Barometer 1016.0 mb
Air temperature 27.0 ° C
Visibility: greater than 5.4 NM
Dewpoint 23.6 ° C

Date/timePositionNaut miles runAvg speedWind from/ knotsBaromVisibWave heightAir tempDewpointWater temp
2018-Jan-12 06:00N 11°30' E 112°00'   040 / 251016.0 5.4 27.023.6
2018-Jan-09 17:22N 22°01' E 121°11'514.3
2018-Jan-09 17:00N 22°05' E 121°14'714.5
2018-Jan-09 16:30N 22°11' E 121°19'1415.3
2018-Jan-09 15:34N 22°23' E 121°28'216.3
2018-Jan-09 15:28N 22°24' E 121°29'715.6
2018-Jan-09 15:00N 22°30' E 121°33'815.4
2018-Jan-09 14:28N 22°37' E 121°37'814.7
2018-Jan-09 13:57N 22°44' E 121°41'814.8
2018-Jan-09 13:23N 22°52' E 121°44'6814.7
2018-Jan-09 08:46N 23°54' E 122°15'414.7
2018-Jan-09 08:30N 23°57' E 122°17'714.8
2018-Jan-09 08:01N 24°04' E 122°20'714.5
2018-Jan-09 07:31N 24°10' E 122°24'714.4
2018-Jan-09 07:00N 24°17' E 122°27'714.3
2018-Jan-09 06:31N 24°23' E 122°31'714.3
2018-Jan-09 06:01N 24°29' E 122°35'714.3
2018-Jan-09 05:31N 24°35' E 122°39'714.2
2018-Jan-09 05:01N 24°42' E 122°43'154.8
2018-Jan-09 05:00N 24°42' E 122°42'714.6 020 / 211024.0 5.4 15.811.3
2018-Jan-09 04:31N 24°48' E 122°46'713.9
2018-Jan-09 04:00N 24°54' E 122°50'713.6
2018-Jan-09 03:31N 24°60' E 122°53'713.7
2018-Jan-09 03:01N 25°06' E 122°57'713.6
2018-Jan-09 02:31N 25°12' E 123°01'713.3
2018-Jan-09 02:01N 25°18' E 123°04'  

Dump ship's entire track history